Time;durP1;ratioP1;P1;durP2;ratioP2;P2;SDS_P1;SDS_P2;PMS_P1;PMS_P2;Temp;Humidity;BMP_temperature;BMP_pressure;BME280_temperature;BME280_humidity;BME280_pressure;Samples;Min_cycle;Max_cycle;Signal;HPM_P1;HPM_P2
2022/01/17 00:01:07;;;;;;;27.23;9.05;;;8.00;99.90;;;;;;4992956;28;20503;-73
2022/01/17 00:03:33;;;;;;;25.33;10.63;;;8.00;99.90;;;;;;4993243;28;20034;-74
2022/01/17 00:05:59;;;;;;;21.33;9.05;;;8.00;99.90;;;;;;4993816;28;20065;-74
2022/01/17 00:08:25;;;;;;;22.40;9.40;;;8.00;99.90;;;;;;4993455;28;20031;-72
2022/01/17 00:10:50;;;;;;;18.70;8.30;;;7.90;99.90;;;;;;4993207;28;20030;-72
2022/01/17 00:13:24;;;;;;;17.65;7.82;;;8.00;99.90;;;;;;4998648;28;20038;-74
2022/01/17 00:15:56;;;;;;;20.90;8.80;;;8.00;99.90;;;;;;4992836;28;20055;-73
2022/01/17 00:18:29;;;;;;;18.40;7.07;;;7.90;99.90;;;;;;4969956;28;20164;-73
2022/01/17 00:20:56;;;;;;;18.58;7.15;;;8.00;99.90;;;;;;4993243;28;20045;-73
2022/01/17 00:23:22;;;;;;;15.35;6.93;;;8.00;99.90;;;;;;4975691;28;20034;-73
2022/01/17 00:25:48;;;;;;;22.40;7.43;;;8.00;99.90;;;;;;4979278;28;20054;-74
2022/01/17 00:28:13;;;;;;;14.52;6.72;;;8.10;99.90;;;;;;4991185;28;20037;-75
2022/01/17 00:30:39;;;;;;;17.45;6.30;;;8.00;99.90;;;;;;5012289;28;20448;-73
2022/01/17 00:33:04;;;;;;;16.20;6.57;;;8.00;99.90;;;;;;5012780;28;20463;-73
2022/01/17 00:35:30;;;;;;;17.85;5.88;;;8.00;99.90;;;;;;4994826;28;20026;-74
2022/01/17 00:37:55;;;;;;;12.93;5.18;;;7.90;99.90;;;;;;5011735;28;20093;-74
2022/01/17 00:40:22;;;;;;;15.93;4.97;;;8.00;99.90;;;;;;5012107;28;20485;-74
2022/01/17 00:42:51;;;;;;;18.65;5.18;;;8.00;99.90;;;;;;5011841;28;20022;-73
2022/01/17 00:45:19;;;;;;;13.02;4.13;;;8.00;99.90;;;;;;5012257;28;20033;-72
2022/01/17 00:47:45;;;;;;;11.60;5.20;;;8.00;99.90;;;;;;5012002;28;20049;-74
2022/01/17 00:50:11;;;;;;;14.38;4.35;;;8.00;99.90;;;;;;4992464;28;20068;-73
2022/01/17 00:52:37;;;;;;;13.35;3.88;;;8.10;99.90;;;;;;5011323;28;20073;-73
2022/01/17 00:55:03;;;;;;;9.35;3.60;;;8.20;99.90;;;;;;4994103;28;20038;-72
2022/01/17 00:57:28;;;;;;;11.25;3.30;;;8.10;99.90;;;;;;4994032;28;20030;-73
2022/01/17 00:59:54;;;;;;;13.50;3.75;;;8.00;99.90;;;;;;5011675;28;20125;-73
2022/01/17 01:02:20;;;;;;;8.45;3.03;;;8.00;99.90;;;;;;4994109;28;20034;-74
2022/01/17 01:04:46;;;;;;;9.77;2.85;;;8.10;99.90;;;;;;5011006;28;20061;-75
2022/01/17 01:07:11;;;;;;;18.98;4.13;;;8.00;99.90;;;;;;5010909;28;20049;-75
2022/01/17 01:09:47;;;;;;;13.15;3.58;;;8.00;99.90;;;;;;5011606;28;20026;-74
2022/01/17 01:12:13;;;;;;;13.52;3.35;;;8.00;99.90;;;;;;5011898;28;20042;-74
2022/01/17 01:14:41;;;;;;;12.35;2.55;;;8.00;99.90;;;;;;5011047;28;20080;-76
2022/01/17 01:17:19;;;;;;;;;;;7.90;99.90;;;;;;4993770;28;20109;-73
2022/01/17 01:19:45;;;;;;;12.55;2.08;;;8.00;99.90;;;;;;4994032;28;19945;-75
2022/01/17 01:27:40;;;;;;;8.60;1.98;;;7.80;99.90;;;;;;5011885;28;20375;-73
2022/01/17 01:27:50;;;;;;;11.82;1.70;;;7.70;99.40;;;;;;5011260;28;20104;-75
2022/01/17 01:30:18;;;;;;;13.13;1.55;;;7.70;99.50;;;;;;5011253;28;20068;-74
2022/01/17 01:32:52;;;;;;;;;;;7.70;99.20;;;;;;4994166;28;20072;-72
2022/01/17 01:35:21;;;;;;;12.00;1.67;;;7.70;99.10;;;;;;5011070;28;20343;-74
2022/01/17 01:37:48;;;;;;;19.05;2.13;;;7.70;99.10;;;;;;5010443;28;20038;-72
2022/01/17 01:40:16;;;;;;;16.23;1.77;;;7.70;99.10;;;;;;5011196;28;20387;-73
2022/01/17 01:42:42;;;;;;;12.75;1.85;;;7.70;99.20;;;;;;5011045;28;20033;-72
2022/01/17 01:45:09;;;;;;;8.55;1.35;;;7.80;99.30;;;;;;5011434;28;20490;-74
2022/01/17 01:47:35;;;;;;;10.73;1.83;;;7.80;99.50;;;;;;5010567;28;20117;-73
2022/01/17 01:50:01;;;;;;;10.23;1.80;;;7.70;99.90;;;;;;5010371;28;20121;-74
2022/01/17 01:52:26;;;;;;;11.23;2.10;;;7.80;99.90;;;;;;5010715;28;20092;-73
2022/01/17 01:54:52;;;;;;;10.27;1.65;;;7.70;99.90;;;;;;4993477;28;20038;-73
2022/01/17 01:57:18;;;;;;;9.82;1.48;;;7.60;99.90;;;;;;5011394;28;20431;-73
2022/01/17 01:59:44;;;;;;;9.57;1.55;;;7.60;99.90;;;;;;5010524;28;20034;-72
2022/01/17 02:02:09;;;;;;;10.55;1.52;;;7.70;99.90;;;;;;5010643;28;20084;-74
2022/01/17 02:04:35;;;;;;;9.15;1.42;;;7.60;99.90;;;;;;5010869;28;20026;-75
2022/01/17 02:07:01;;;;;;;9.85;1.73;;;7.50;99.90;;;;;;5010601;28;20452;-73
2022/01/17 02:09:26;;;;;;;11.88;1.48;;;7.60;99.90;;;;;;4999919;28;20027;-74
2022/01/17 02:11:52;;;;;;;13.05;1.63;;;7.50;99.90;;;;;;4991141;28;20113;-73
2022/01/17 02:14:18;;;;;;;20.00;2.95;;;7.60;99.90;;;;;;4973900;28;20486;-72
2022/01/17 02:16:45;;;;;;;13.95;1.80;;;7.60;99.90;;;;;;4991172;28;20046;-73
2022/01/17 02:19:12;;;;;;;11.18;1.75;;;7.70;99.90;;;;;;4991002;28;20547;-72
2022/01/17 02:21:47;;;;;;;15.65;2.17;;;7.70;99.90;;;;;;5001947;28;20076;-72
2022/01/17 02:24:16;;;;;;;17.58;1.80;;;7.60;99.60;;;;;;5010391;28;20041;-73
2022/01/17 02:26:42;;;;;;;20.10;1.85;;;7.60;99.40;;;;;;5009481;28;20033;-73
2022/01/17 02:29:07;;;;;;;10.88;1.65;;;7.60;99.10;;;;;;5010719;28;20383;-73
2022/01/17 02:31:33;;;;;;;16.80;2.33;;;7.60;99.00;;;;;;4993273;28;20065;-72
2022/01/17 02:34:01;;;;;;;8.20;1.55;;;7.60;99.10;;;;;;4993119;28;20029;-72
2022/01/17 02:36:27;;;;;;;12.07;1.55;;;7.60;98.90;;;;;;5010813;28;20057;-72
2022/01/17 02:38:53;;;;;;;15.30;1.42;;;7.50;98.90;;;;;;5009712;28;20061;-72
2022/01/17 02:41:18;;;;;;;16.33;1.60;;;7.60;98.90;;;;;;5010396;28;20065;-73
2022/01/17 02:43:46;;;;;;;7.78;1.30;;;7.50;98.90;;;;;;4992876;28;20034;-73
2022/01/17 02:48:39;;;;;;;11.60;1.70;;;7.50;99.10;;;;;;5010308;28;20491;-73
2022/01/17 02:51:05;;;;;;;18.45;2.03;;;7.50;99.00;;;;;;5010867;28;20025;-73
2022/01/17 02:53:31;;;;;;;9.18;1.73;;;7.50;99.10;;;;;;5010404;28;20098;-73
2022/01/17 02:56:01;;;;;;;12.45;1.55;;;7.50;99.20;;;;;;4993204;28;20431;-73
2022/01/17 02:58:28;;;;;;;22.98;2.00;;;7.50;99.30;;;;;;5010288;28;20038;-73
2022/01/17 03:00:57;;;;;;;17.95;2.15;;;7.50;99.30;;;;;;5009026;28;20172;-74
2022/01/17 03:03:26;;;;;;;16.70;1.95;;;7.60;99.40;;;;;;5010680;28;20026;-72
2022/01/17 03:05:52;;;;;;;16.08;2.22;;;7.50;99.50;;;;;;5010250;28;20037;-73
2022/01/17 03:08:20;;;;;;;12.98;1.60;;;7.50;99.60;;;;;;5010306;28;20037;-74
2022/01/17 03:10:50;;;;;;;12.50;2.40;;;7.50;99.60;;;;;;5009680;28;20552;-72
2022/01/17 03:13:17;;;;;;;8.02;1.92;;;7.60;99.70;;;;;;5011783;28;20263;-73
2022/01/17 03:15:44;;;;;;;16.15;2.15;;;7.60;99.60;;;;;;5013683;28;20037;-72
2022/01/17 03:18:11;;;;;;;14.68;2.58;;;7.50;99.50;;;;;;5014102;28;20065;-72
2022/01/17 03:20:39;;;;;;;17.52;2.20;;;7.50;99.60;;;;;;5013452;28;20096;-73
2022/01/17 03:23:06;;;;;;;14.50;1.52;;;7.50;99.60;;;;;;5013655;28;20047;-72
2022/01/17 03:25:32;;;;;;;22.73;3.08;;;7.50;99.60;;;;;;5013349;28;20089;-73
2022/01/17 03:27:59;;;;;;;13.23;1.90;;;7.50;99.60;;;;;;5013362;28;20026;-72
2022/01/17 03:30:26;;;;;;;16.88;1.45;;;7.50;99.60;;;;;;5013799;28;20030;-73
2022/01/17 03:32:52;;;;;;;15.63;1.88;;;7.50;99.60;;;;;;5013037;28;20034;-72
2022/01/17 03:35:18;;;;;;;15.63;1.52;;;7.60;99.60;;;;;;5013461;28;20037;-71
2022/01/17 03:37:44;;;;;;;10.15;2.10;;;7.50;99.60;;;;;;5013423;28;20133;-73
2022/01/17 03:40:11;;;;;;;11.73;2.30;;;7.50;99.60;;;;;;4995822;28;20037;-73
2022/01/17 03:42:37;;;;;;;17.40;1.70;;;7.50;99.50;;;;;;5012193;28;20036;-72
2022/01/17 03:45:07;;;;;;;16.45;2.33;;;7.60;99.50;;;;;;4996292;28;20033;-74
2022/01/17 03:47:34;;;;;;;10.10;1.60;;;7.50;99.60;;;;;;5013193;28;20112;-73
2022/01/17 03:50:00;;;;;;;7.03;1.48;;;7.60;99.40;;;;;;4995755;28;20543;-72
2022/01/17 03:52:25;;;;;;;13.25;1.77;;;7.60;99.40;;;;;;5012964;28;20578;-72
2022/01/17 03:54:51;;;;;;;8.00;1.15;;;7.60;99.30;;;;;;5012373;28;20170;-71
2022/01/17 03:57:16;;;;;;;18.17;1.88;;;7.50;99.40;;;;;;5013459;28;20029;-74
2022/01/17 03:59:42;;;;;;;16.02;2.42;;;7.50;99.30;;;;;;5012870;28;20030;-73
2022/01/17 04:02:08;;;;;;;15.10;1.48;;;7.50;99.20;;;;;;5012752;28;20049;-72
2022/01/17 04:04:33;;;;;;;14.00;2.28;;;7.50;99.20;;;;;;5012650;28;20034;-72
2022/01/17 04:06:59;;;;;;;19.42;3.90;;;7.50;99.20;;;;;;5012749;28;20088;-72
2022/01/17 04:09:24;;;;;;;17.77;2.00;;;7.60;99.20;;;;;;5012761;28;20332;-73
2022/01/17 04:11:50;;;;;;;9.80;1.83;;;7.60;99.30;;;;;;5012663;28;20069;-74
2022/01/17 04:14:17;;;;;;;11.23;2.13;;;7.50;99.20;;;;;;5012318;28;20064;-73
2022/01/17 04:16:42;;;;;;;14.73;2.35;;;7.50;99.10;;;;;;5012607;28;20088;-73
2022/01/17 04:19:10;;;;;;;21.85;2.60;;;7.50;99.10;;;;;;5012244;28;20423;-74
2022/01/17 04:21:36;;;;;;;14.10;1.58;;;7.50;99.20;;;;;;5012511;28;20073;-73
2022/01/17 04:24:02;;;;;;;11.30;1.50;;;7.40;99.10;;;;;;5012744;28;20378;-72
2022/01/17 04:26:28;;;;;;;21.38;2.00;;;7.50;99.20;;;;;;4995237;28;20030;-73
2022/01/17 04:28:53;;;;;;;15.30;1.85;;;7.50;99.00;;;;;;5011679;28;20368;-73
2022/01/17 04:31:19;;;;;;;14.70;1.95;;;7.50;99.00;;;;;;5012332;28;20045;-72
2022/01/17 04:33:45;;;;;;;15.15;1.40;;;7.50;99.00;;;;;;5012617;28;20095;-71
2022/01/17 04:36:10;;;;;;;13.98;2.22;;;7.50;98.90;;;;;;4995377;28;20374;-72
2022/01/17 04:38:37;;;;;;;13.15;1.88;;;7.50;98.90;;;;;;5011406;28;20026;-72
2022/01/17 04:41:12;;;;;;;15.55;1.70;;;7.50;98.80;;;;;;5012247;28;20064;-73
2022/01/17 04:46:05;;;;;;;20.98;3.10;;;7.60;98.70;;;;;;5011696;28;20037;-72
2022/01/17 04:48:31;;;;;;;16.52;1.75;;;7.50;98.60;;;;;;5012491;28;20014;-74
2022/01/17 04:50:58;;;;;;;16.45;2.28;;;7.50;98.70;;;;;;5012374;28;20112;-73
2022/01/17 04:53:28;;;;;;;24.30;2.17;;;7.50;98.70;;;;;;5011455;28;20033;-72
2022/01/17 04:55:55;;;;;;;14.82;2.15;;;7.50;98.50;;;;;;4992325;28;20034;-72
2022/01/17 04:58:20;;;;;;;29.70;3.90;;;7.60;98.50;;;;;;4975114;28;20113;-72
2022/01/17 05:00:47;;;;;;;16.02;2.17;;;7.60;98.50;;;;;;4992270;28;20157;-72
2022/01/17 05:03:17;;;;;;;9.88;2.55;;;7.50;98.40;;;;;;4992820;28;20034;-72
2022/01/17 05:05:43;;;;;;;7.13;1.27;;;7.60;98.50;;;;;;5011099;28;20041;-73
2022/01/17 05:08:09;;;;;;;17.75;3.25;;;7.60;98.40;;;;;;4994187;28;20030;-72
2022/01/17 05:10:35;;;;;;;20.90;2.28;;;7.50;98.30;;;;;;5011041;28;20072;-72
2022/01/17 05:13:01;;;;;;;12.23;2.17;;;7.50;98.40;;;;;;4994399;28;20049;-73
2022/01/17 05:18:12;;;;;;;17.27;2.10;;;7.60;98.40;;;;;;5011455;28;20038;-73
2022/01/17 05:20:42;;;;;;;17.00;1.83;;;7.50;98.40;;;;;;5011427;28;20060;-73
2022/01/17 05:23:08;;;;;;;16.83;1.70;;;7.60;98.40;;;;;;4993838;28;20033;-74
2022/01/17 05:25:35;;;;;;;19.40;2.17;;;7.50;98.30;;;;;;5010958;28;20041;-72
2022/01/17 05:28:01;;;;;;;15.00;1.92;;;7.50;98.40;;;;;;5011137;28;20022;-72
2022/01/17 05:30:27;;;;;;;6.88;1.25;;;7.50;98.30;;;;;;5012072;28;20065;-73
2022/01/17 05:32:53;;;;;;;16.90;2.33;;;7.60;98.50;;;;;;5011269;28;20591;-74
2022/01/17 05:35:19;;;;;;;10.38;1.95;;;7.60;98.50;;;;;;5010711;28;20108;-74
2022/01/17 05:37:45;;;;;;;17.02;2.15;;;7.60;98.50;;;;;;5011146;28;20034;-73
2022/01/17 05:40:13;;;;;;;13.88;1.60;;;7.50;98.60;;;;;;4992747;28;20036;-75
2022/01/17 05:42:39;;;;;;;27.02;2.17;;;7.60;98.60;;;;;;4994058;28;20547;-74
2022/01/17 05:45:07;;;;;;;16.10;2.80;;;7.50;98.50;;;;;;5011478;28;20627;-75
2022/01/17 05:47:33;;;;;;;11.30;2.05;;;7.50;98.60;;;;;;4993729;28;20263;-75
2022/01/17 05:50:01;;;;;;;20.33;1.90;;;7.50;98.70;;;;;;5010693;28;20056;-75
2022/01/17 05:52:27;;;;;;;12.27;1.92;;;7.60;98.80;;;;;;5010171;28;20038;-73
2022/01/17 05:54:52;;;;;;;14.25;1.65;;;7.60;98.60;;;;;;5010974;28;20073;-74
2022/01/17 05:57:18;;;;;;;19.10;2.20;;;7.60;98.70;;;;;;5011412;28;20498;-74
2022/01/17 05:59:44;;;;;;;18.60;2.58;;;7.70;98.60;;;;;;5010639;28;20030;-75
2022/01/17 06:02:10;;;;;;;23.98;2.33;;;7.70;98.40;;;;;;5010882;28;20137;-73
2022/01/17 06:04:36;;;;;;;16.48;2.08;;;7.70;98.50;;;;;;4992319;28;20038;-74
2022/01/17 06:07:03;;;;;;;12.95;1.83;;;7.60;98.50;;;;;;5011130;28;20091;-73
2022/01/17 06:09:28;;;;;;;17.00;2.40;;;7.60;98.50;;;;;;5011285;28;20041;-73
2022/01/17 06:11:54;;;;;;;18.95;1.85;;;7.60;98.50;;;;;;5010367;28;20026;-73
2022/01/17 06:14:21;;;;;;;15.73;1.77;;;7.70;98.50;;;;;;4992614;28;20396;-73
2022/01/17 06:16:47;;;;;;;12.05;1.92;;;7.60;98.60;;;;;;5009726;28;20034;-73
2022/01/17 06:19:13;;;;;;;18.30;2.58;;;7.60;98.60;;;;;;5010569;28;20036;-74
2022/01/17 06:21:38;;;;;;;21.25;2.72;;;7.70;98.50;;;;;;5009439;28;20041;-75
2022/01/17 06:24:06;;;;;;;15.10;1.73;;;7.70;98.50;;;;;;5006103;28;20042;-74
2022/01/17 06:26:33;;;;;;;14.27;2.07;;;7.80;98.40;;;;;;5011046;28;20375;-74
2022/01/17 06:28:59;;;;;;;13.13;2.75;;;7.80;98.40;;;;;;5010725;28;20298;-72
2022/01/17 06:31:24;;;;;;;15.57;2.00;;;7.80;98.30;;;;;;5009744;28;20038;-74
2022/01/17 06:33:50;;;;;;;13.15;2.17;;;7.80;98.30;;;;;;5008945;28;20073;-75
2022/01/17 06:36:15;;;;;;;15.82;2.15;;;7.80;98.30;;;;;;4993188;28;20034;-75
2022/01/17 06:38:41;;;;;;;17.25;2.03;;;7.80;98.40;;;;;;5010195;28;20365;-75
2022/01/17 06:41:07;;;;;;;14.18;1.70;;;7.80;98.40;;;;;;5008048;28;20736;-73
2022/01/17 06:43:32;;;;;;;14.68;1.50;;;7.90;98.40;;;;;;5008160;28;20459;-74
2022/01/17 06:45:58;;;;;;;14.95;1.70;;;7.80;98.40;;;;;;5009426;28;20042;-72
2022/01/17 06:48:24;;;;;;;19.83;2.28;;;7.80;98.50;;;;;;5012066;28;20030;-74
2022/01/17 06:50:49;;;;;;;12.48;1.70;;;7.80;98.60;;;;;;5013775;28;20034;-73
2022/01/17 06:53:15;;;;;;;17.70;2.25;;;7.80;98.60;;;;;;5014384;28;20121;-72
2022/01/17 06:55:40;;;;;;;17.15;2.10;;;7.70;98.60;;;;;;5014695;28;20092;-73
2022/01/17 06:58:06;;;;;;;18.77;2.40;;;7.80;98.70;;;;;;5014487;28;20359;-72
2022/01/17 07:00:31;;;;;;;13.30;2.00;;;7.70;98.90;;;;;;5012200;28;20021;-74
2022/01/17 07:02:57;;;;;;;13.38;1.90;;;7.70;99.10;;;;;;5014708;28;20149;-72
2022/01/17 07:05:23;;;;;;;12.90;2.58;;;7.70;99.00;;;;;;5012758;28;20386;-71
2022/01/17 07:07:48;;;;;;;17.70;1.85;;;7.80;99.10;;;;;;5014050;28;20037;-72
2022/01/17 07:10:15;;;;;;;20.35;2.97;;;7.90;99.00;;;;;;5013727;28;20030;-74
2022/01/17 07:12:40;;;;;;;12.85;2.00;;;7.70;98.90;;;;;;4998910;28;20080;-74
2022/01/17 07:15:07;;;;;;;11.60;2.00;;;7.70;98.90;;;;;;5024546;28;20589;-73
2022/01/17 07:17:33;;;;;;;13.00;1.87;;;7.70;98.90;;;;;;5029882;28;20033;-72
2022/01/17 07:19:59;;;;;;;13.38;2.17;;;7.70;99.00;;;;;;4976201;28;20349;-73
2022/01/17 07:22:25;;;;;;;22.08;2.75;;;7.80;98.90;;;;;;5002560;28;20048;-72
2022/01/17 07:24:51;;;;;;;15.00;1.75;;;7.90;99.30;;;;;;5012161;28;20688;-75
2022/01/17 07:27:16;;;;;;;21.02;2.25;;;7.90;99.40;;;;;;4995095;28;20160;-72
2022/01/17 07:29:42;;;;;;;14.57;2.20;;;7.90;99.10;;;;;;5012004;28;20041;-72
2022/01/17 07:32:09;;;;;;;12.50;2.05;;;7.90;99.30;;;;;;5012971;28;20022;-74
2022/01/17 07:34:35;;;;;;;10.93;2.72;;;7.90;99.20;;;;;;5010155;28;20034;-75
2022/01/17 07:37:00;;;;;;;15.80;2.20;;;7.90;99.30;;;;;;5011953;28;20045;-73
2022/01/17 07:39:29;;;;;;;13.75;1.67;;;7.90;99.30;;;;;;5013075;28;20447;-73
2022/01/17 07:41:54;;;;;;;18.30;2.05;;;7.90;99.50;;;;;;5012879;28;20063;-76
2022/01/17 07:44:22;;;;;;;22.50;3.15;;;7.90;99.70;;;;;;5013178;28;20022;-74
2022/01/17 07:46:53;;;;;;;17.10;1.70;;;7.90;99.60;;;;;;5013423;28;20045;-74
2022/01/17 07:49:22;;;;;;;19.83;2.38;;;7.90;99.80;;;;;;5012197;28;20113;-72
2022/01/17 07:51:52;;;;;;;17.33;1.77;;;7.90;99.90;;;;;;5012747;28;20018;-72
2022/01/17 07:54:18;;;;;;;17.70;2.63;;;7.90;99.90;;;;;;5012522;28;20026;-74
2022/01/17 07:56:46;;;;;;;12.30;2.05;;;7.80;99.90;;;;;;5012472;28;20049;-72
2022/01/17 07:59:13;;;;;;;16.35;2.05;;;7.80;99.90;;;;;;5011888;28;20030;-71
2022/01/17 08:01:39;;;;;;;21.40;2.15;;;7.90;99.90;;;;;;5012241;28;20030;-71
2022/01/17 08:04:06;;;;;;;15.55;1.58;;;7.90;99.90;;;;;;4994784;28;20034;-73
2022/01/17 08:06:38;;;;;;;15.10;1.83;;;8.00;99.90;;;;;;5012517;28;20044;-74
2022/01/17 08:09:17;;;;;;;16.27;2.20;;;7.90;99.90;;;;;;5013358;28;20022;-73
2022/01/17 08:11:43;;;;;;;11.48;2.42;;;8.00;99.90;;;;;;4993774;28;20065;-74
2022/01/17 08:14:09;;;;;;;14.48;2.03;;;8.10;99.90;;;;;;5009392;28;20038;-73
2022/01/17 08:16:34;;;;;;;14.30;1.98;;;8.00;99.90;;;;;;4993551;28;20037;-72
2022/01/17 08:19:00;;;;;;;13.30;1.73;;;8.00;99.90;;;;;;5012517;28;20521;-73
2022/01/17 08:21:25;;;;;;;10.60;1.73;;;8.00;99.90;;;;;;5012808;28;20395;-73
2022/01/17 08:23:54;;;;;;;15.23;2.15;;;8.00;99.90;;;;;;5012109;28;20041;-72
2022/01/17 08:26:21;;;;;;;11.27;1.50;;;7.90;99.90;;;;;;4994226;28;20038;-76
2022/01/17 08:28:48;;;;;;;14.85;2.08;;;8.00;99.90;;;;;;5012028;28;20034;-72
2022/01/17 08:31:13;;;;;;;16.67;1.75;;;7.90;99.90;;;;;;5011605;28;20045;-73
2022/01/17 08:33:39;;;;;;;10.45;1.52;;;7.90;99.90;;;;;;5011207;28;20099;-72
2022/01/17 08:36:07;;;;;;;17.27;4.57;;;7.90;99.90;;;;;;5011787;28;20358;-71
2022/01/17 08:38:33;;;;;;;10.70;1.73;;;7.90;99.90;;;;;;5012183;28;20080;-74
2022/01/17 08:40:59;;;;;;;14.57;1.80;;;7.80;99.90;;;;;;5012041;28;20045;-75
2022/01/17 08:43:25;;;;;;;10.05;1.60;;;7.80;99.90;;;;;;5011570;28;20131;-73
2022/01/17 08:45:51;;;;;;;11.00;1.98;;;7.70;99.90;;;;;;5012360;28;20509;-76
2022/01/17 08:48:17;;;;;;;13.68;2.10;;;7.70;99.90;;;;;;4995466;28;20038;-74
2022/01/17 08:50:44;;;;;;;10.93;2.20;;;7.70;99.90;;;;;;5011925;28;20095;-74
2022/01/17 08:53:13;;;;;;;18.05;3.10;;;7.70;99.90;;;;;;5011136;28;20045;-71
2022/01/17 08:55:39;;;;;;;14.60;2.15;;;7.70;99.90;;;;;;4994115;28;20100;-75
2022/01/17 08:58:05;;;;;;;11.63;1.83;;;7.80;99.90;;;;;;4993689;28;20116;-73
2022/01/17 09:00:31;;;;;;;10.45;2.05;;;7.80;99.90;;;;;;5011037;28;20026;-73
2022/01/17 09:02:58;;;;;;;17.70;2.33;;;7.80;99.90;;;;;;5011704;28;20022;-74
2022/01/17 09:05:24;;;;;;;10.10;2.25;;;7.80;99.90;;;;;;5011373;28;20125;-74
2022/01/17 09:07:49;;;;;;;8.90;2.35;;;7.90;99.90;;;;;;5010858;28;20539;-74
2022/01/17 09:10:16;;;;;;;16.63;2.83;;;8.00;99.90;;;;;;4993194;28;20415;-73
2022/01/17 09:12:41;;;;;;;15.48;2.08;;;7.90;99.90;;;;;;5011025;28;20468;-73
2022/01/17 09:15:08;;;;;;;13.68;2.30;;;7.90;99.90;;;;;;5011546;28;20033;-74
2022/01/17 09:17:33;;;;;;;21.48;3.17;;;7.90;99.90;;;;;;5011292;28;20037;-74
2022/01/17 09:19:59;;;;;;;10.90;2.08;;;8.00;99.90;;;;;;5010066;28;20026;-74
2022/01/17 09:22:25;;;;;;;8.07;2.38;;;7.90;99.90;;;;;;4993110;28;20044;-74
2022/01/17 09:24:51;;;;;;;8.90;2.17;;;8.00;99.90;;;;;;5010723;28;20046;-75
2022/01/17 09:27:17;;;;;;;13.90;2.15;;;8.10;99.90;;;;;;5011320;28;20022;-77
2022/01/17 09:29:43;;;;;;;8.65;1.80;;;8.00;99.90;;;;;;5010925;28;20048;-73
2022/01/17 09:32:09;;;;;;;11.30;2.25;;;8.00;99.90;;;;;;5011388;28;20038;-76
2022/01/17 09:34:35;;;;;;;11.55;2.63;;;8.00;99.90;;;;;;5011282;28;20132;-74
2022/01/17 09:37:00;;;;;;;16.08;2.38;;;8.00;99.90;;;;;;5011227;28;20100;-74
2022/01/17 09:39:26;;;;;;;10.32;1.70;;;8.00;99.90;;;;;;5010671;28;20030;-75
2022/01/17 09:41:51;;;;;;;26.23;2.88;;;8.00;99.90;;;;;;5011137;28;20100;-75
2022/01/17 09:44:17;;;;;;;11.27;2.17;;;8.00;99.90;;;;;;4993213;28;20480;-75
2022/01/17 09:46:46;;;;;;;9.63;2.30;;;8.10;99.90;;;;;;5010697;28;20052;-76
2022/01/17 09:49:20;;;;;;;10.23;2.25;;;8.10;99.90;;;;;;4993579;28;20041;-77
2022/01/17 09:54:22;;;;;;;14.07;2.58;;;8.20;99.90;;;;;;5010288;28;20026;-72
2022/01/17 09:56:52;;;;;;;18.60;3.92;;;8.20;99.90;;;;;;5010769;28;20497;-74
2022/01/17 09:59:19;;;;;;;13.77;2.65;;;8.30;99.90;;;;;;5010716;28;20026;-73
2022/01/17 10:01:44;;;;;;;18.88;2.60;;;8.30;99.90;;;;;;5010722;28;20544;-74
2022/01/17 10:04:10;;;;;;;14.32;3.53;;;8.20;99.90;;;;;;5010177;28;20056;-74
2022/01/17 10:06:37;;;;;;;13.38;2.85;;;8.30;99.90;;;;;;4993158;28;20029;-72
2022/01/17 10:09:12;;;;;;;17.37;3.43;;;8.20;99.90;;;;;;5010893;28;20018;-77
2022/01/17 10:12:02;;;;;;;14.23;2.65;;;8.30;99.90;;;;;;4994190;28;20045;-75
2022/01/17 10:14:31;;;;;;;12.55;2.63;;;8.30;99.90;;;;;;5010535;28;20046;-72
2022/01/17 10:16:56;;;;;;;11.18;2.30;;;8.40;99.90;;;;;;5009913;28;20364;-72
2022/01/17 10:19:24;;;;;;;12.23;2.20;;;8.40;99.90;;;;;;5010769;28;20026;-72
2022/01/17 10:21:54;;;;;;;15.65;2.75;;;8.40;99.90;;;;;;5011847;28;20622;-71
2022/01/17 10:35:23;;;;;;;7.00;2.05;;;8.60;99.90;;;;;;5013691;28;20507;-72
2022/01/17 10:38:02;;;;;;;18.77;2.83;;;8.60;99.90;;;;;;5013849;28;20526;-72
2022/01/17 10:40:31;;;;;;;13.10;2.60;;;8.60;99.90;;;;;;5014230;28;20042;-71
2022/01/17 10:42:59;;;;;;;8.90;2.50;;;8.70;99.90;;;;;;5013794;28;20034;-71
2022/01/17 10:45:33;;;;;;;18.07;3.00;;;8.70;99.90;;;;;;4997178;28;20407;-73
2022/01/17 10:48:01;;;;;;;16.77;3.45;;;8.70;99.90;;;;;;5013926;28;20294;-75
2022/01/17 10:50:37;;;;;;;13.57;2.80;;;8.70;99.90;;;;;;4996778;28;20030;-73
2022/01/17 10:53:06;;;;;;;19.15;3.05;;;8.70;99.90;;;;;;5013296;28;20038;-73
2022/01/17 10:55:35;;;;;;;19.83;3.03;;;8.80;99.90;;;;;;5012866;28;20034;-74
2022/01/17 10:58:09;;;;;;;16.60;3.03;;;8.90;99.90;;;;;;5013742;28;20026;-74
2022/01/17 11:00:41;;;;;;;18.10;3.50;;;9.00;99.90;;;;;;5013511;28;20100;-74
2022/01/17 11:03:11;;;;;;;14.15;3.35;;;8.90;99.90;;;;;;4995270;28;20034;-72
2022/01/17 11:05:38;;;;;;;16.88;3.30;;;8.90;99.90;;;;;;5013198;28;20088;-72
2022/01/17 11:08:03;;;;;;;14.57;2.88;;;9.00;99.90;;;;;;5013143;28;20089;-74
2022/01/17 11:10:34;;;;;;;17.23;5.50;;;9.00;99.90;;;;;;4996218;28;20054;-74
2022/01/17 11:13:02;;;;;;;11.07;2.55;;;9.00;99.90;;;;;;5012927;28;20045;-73
2022/01/17 11:15:28;;;;;;;;;;;8.90;99.90;;;;;;5013198;28;20230;-75
2022/01/17 11:17:59;;;;;;;20.63;3.35;;;9.00;99.90;;;;;;5008495;28;19921;-72
2022/01/17 11:20:27;;;;;;;13.10;2.25;;;9.00;99.90;;;;;;5012598;28;20042;-76
2022/01/17 11:22:59;;;;;;;15.38;2.90;;;8.90;99.90;;;;;;5012417;28;20083;-73
2022/01/17 11:25:36;;;;;;;19.00;3.90;;;8.90;99.90;;;;;;5005062;28;20480;-74
2022/01/17 11:28:04;;;;;;;17.08;3.40;;;8.90;99.90;;;;;;5013350;28;20034;-72
2022/01/17 11:30:34;;;;;;;23.25;3.55;;;8.90;99.90;;;;;;5009972;28;20022;-71
2022/01/17 11:33:04;;;;;;;18.65;3.20;;;9.00;99.90;;;;;;4993119;28;20026;-72
2022/01/17 11:35:31;;;;;;;17.27;3.97;;;8.90;99.90;;;;;;4993716;28;20038;-72
2022/01/17 11:37:59;;;;;;;17.55;2.78;;;8.90;99.90;;;;;;4975853;28;20050;-69
2022/01/17 11:40:37;;;;;;;17.52;3.53;;;8.90;99.90;;;;;;5008278;28;20189;-70
2022/01/17 11:43:20;;;;;;;;;;;9.00;99.90;;;;;;5013693;28;20038;-73
2022/01/17 11:45:46;;;;;;;25.67;3.08;;;8.90;99.90;;;;;;5012828;28;19905;-71
2022/01/17 11:48:29;;;;;;;17.95;3.10;;;8.90;99.90;;;;;;4994379;28;20033;-70
2022/01/17 11:50:57;;;;;;;24.13;4.18;;;9.10;99.90;;;;;;5012689;28;20406;-70
2022/01/17 11:53:23;;;;;;;18.17;3.80;;;9.00;99.90;;;;;;4995116;28;20030;-72
2022/01/17 11:55:50;;;;;;;17.83;3.38;;;9.00;99.90;;;;;;5008021;28;20093;-77
2022/01/17 11:58:26;;;;;;;26.38;3.40;;;9.00;99.90;;;;;;4985268;28;20037;-76
2022/01/17 12:00:58;;;;;;;21.88;3.78;;;9.10;99.90;;;;;;4995695;28;20436;-76
2022/01/17 12:03:45;;;;;;;17.60;3.28;;;9.00;99.90;;;;;;4996043;28;20088;-76
2022/01/17 12:06:40;;;;;;;21.85;4.15;;;8.90;99.90;;;;;;4994734;28;20042;-78
2022/01/17 12:09:27;;;;;;;16.60;2.95;;;9.00;99.90;;;;;;4959434;28;20344;-76
2022/01/17 12:12:15;;;;;;;23.25;3.75;;;9.00;99.90;;;;;;4999367;28;20484;-75
2022/01/17 12:14:51;;;;;;;;;;;9.10;99.90;;;;;;5012672;28;20168;-74
2022/01/17 12:17:20;;;;;;;23.67;4.32;;;9.00;99.90;;;;;;5012035;28;19909;-74
2022/01/17 12:20:04;;;;;;;29.92;4.90;;;9.00;99.90;;;;;;4995197;28;20026;-72
2022/01/17 12:22:48;;;;;;;18.40;5.10;;;9.00;99.90;;;;;;5012312;28;20117;-75
2022/01/17 12:25:26;;;;;;;20.90;4.43;;;8.90;99.90;;;;;;4994829;28;20045;-75
2022/01/17 12:28:01;;;;;;;23.98;5.15;;;9.00;99.90;;;;;;5012600;28;20057;-74
2022/01/17 12:30:40;;;;;;;22.73;4.57;;;9.00;99.90;;;;;;4995588;28;20026;-78
2022/01/17 12:33:10;;;;;;;31.90;4.10;;;9.00;99.90;;;;;;5012110;28;20105;-76
2022/01/17 12:35:45;;;;;;;26.55;3.78;;;9.10;99.90;;;;;;5011878;28;20034;-77
2022/01/17 12:38:28;;;;;;;29.65;4.45;;;9.20;99.90;;;;;;4994707;28;20030;-76
2022/01/17 12:40:54;;;;;;;15.38;3.25;;;9.20;99.90;;;;;;5012135;28;20073;-75
2022/01/17 12:43:24;;;;;;;15.20;3.30;;;9.30;99.90;;;;;;5012586;28;20030;-74
2022/01/17 12:46:04;;;;;;;30.83;3.92;;;9.40;99.90;;;;;;5010854;28;20053;-74
2022/01/17 12:48:32;;;;;;;31.23;4.15;;;9.40;99.90;;;;;;4985757;28;20045;-69
2022/01/17 12:51:00;;;;;;;28.25;4.35;;;9.30;99.90;;;;;;5012366;28;20356;-75
2022/01/17 12:53:26;;;;;;;19.48;3.25;;;9.50;99.90;;;;;;5012140;28;20037;-73
2022/01/17 12:55:55;;;;;;;25.40;4.15;;;9.50;99.90;;;;;;5012097;28;20026;-73
2022/01/17 12:58:34;;;;;;;23.45;4.15;;;9.50;99.90;;;;;;5011777;28;20110;-74
2022/01/17 13:01:01;;;;;;;22.00;3.95;;;9.50;99.90;;;;;;5011390;28;20068;-73
2022/01/17 13:03:29;;;;;;;19.30;3.38;;;9.40;99.90;;;;;;5012113;28;20417;-75
2022/01/17 13:05:56;;;;;;;26.70;3.75;;;9.60;99.90;;;;;;5011560;28;20026;-73
2022/01/17 13:08:23;;;;;;;27.75;3.97;;;9.50;99.90;;;;;;5011649;28;20037;-74
2022/01/17 13:10:49;;;;;;;28.70;3.88;;;9.50;99.90;;;;;;5011350;28;20053;-75
2022/01/17 13:13:16;;;;;;;30.20;4.03;;;9.50;99.90;;;;;;5012302;28;20056;-73
2022/01/17 13:16:01;;;;;;;24.00;4.43;;;9.60;99.90;;;;;;4994286;28;20022;-69